sensor_id;sensor_type;location;lat;lon;timestamp;P1;durP1;ratioP1;P2;durP2;ratioP2
20573;SDS011;10445;50.216;7.912;2024-03-23T00:56:02;5.40;;;2.83;;
20573;SDS011;10445;50.216;7.912;2024-03-23T00:58:30;8.00;;;2.67;;
20573;SDS011;10445;50.216;7.912;2024-03-23T01:00:57;3.20;;;2.30;;
20573;SDS011;10445;50.216;7.912;2024-03-23T01:03:24;4.87;;;3.33;;
20573;SDS011;10445;50.216;7.912;2024-03-23T01:05:51;1.00;;;1.00;;
20573;SDS011;10445;50.216;7.912;2024-03-23T01:08:18;3.60;;;2.67;;
20573;SDS011;10445;50.216;7.912;2024-03-23T01:10:54;4.30;;;2.87;;
20573;SDS011;10445;50.216;7.912;2024-03-23T01:13:21;2.20;;;2.03;;
20573;SDS011;10445;50.216;7.912;2024-03-23T01:15:49;5.87;;;3.37;;
20573;SDS011;10445;50.216;7.912;2024-03-23T01:18:15;10.63;;;3.47;;
20573;SDS011;10445;50.216;7.912;2024-03-23T01:20:43;2.80;;;2.20;;
20573;SDS011;10445;50.216;7.912;2024-03-23T01:23:10;1.93;;;1.80;;
20573;SDS011;10445;50.216;7.912;2024-03-23T01:25:37;5.40;;;2.33;;
20573;SDS011;10445;50.216;7.912;2024-03-23T01:28:05;5.50;;;2.97;;
20573;SDS011;10445;50.216;7.912;2024-03-23T01:30:33;3.70;;;3.20;;
20573;SDS011;10445;50.216;7.912;2024-03-23T01:32:59;3.07;;;2.43;;
20573;SDS011;10445;50.216;7.912;2024-03-23T01:35:28;2.63;;;1.87;;
20573;SDS011;10445;50.216;7.912;2024-03-23T01:37:54;1.47;;;1.37;;
20573;SDS011;10445;50.216;7.912;2024-03-23T01:40:22;4.83;;;2.87;;
20573;SDS011;10445;50.216;7.912;2024-03-23T01:42:58;6.43;;;3.13;;
20573;SDS011;10445;50.216;7.912;2024-03-23T01:45:31;2.97;;;2.60;;
20573;SDS011;10445;50.216;7.912;2024-03-23T01:47:57;5.77;;;4.30;;
20573;SDS011;10445;50.216;7.912;2024-03-23T01:50:25;2.00;;;1.53;;
20573;SDS011;10445;50.216;7.912;2024-03-23T01:52:52;3.63;;;2.17;;
20573;SDS011;10445;50.216;7.912;2024-03-23T01:55:20;2.53;;;2.30;;
20573;SDS011;10445;50.216;7.912;2024-03-23T01:57:46;3.10;;;2.30;;
20573;SDS011;10445;50.216;7.912;2024-03-23T02:00:14;1.83;;;1.57;;
20573;SDS011;10445;50.216;7.912;2024-03-23T02:02:43;2.60;;;2.33;;
20573;SDS011;10445;50.216;7.912;2024-03-23T02:05:11;2.10;;;1.60;;
20573;SDS011;10445;50.216;7.912;2024-03-23T02:07:38;4.00;;;2.53;;
20573;SDS011;10445;50.216;7.912;2024-03-23T02:10:06;2.40;;;2.20;;
20573;SDS011;10445;50.216;7.912;2024-03-23T02:12:33;13.03;;;4.10;;
20573;SDS011;10445;50.216;7.912;2024-03-23T02:15:00;6.07;;;3.13;;
20573;SDS011;10445;50.216;7.912;2024-03-23T02:17:27;3.10;;;1.97;;
20573;SDS011;10445;50.216;7.912;2024-03-23T02:19:57;3.50;;;2.13;;
20573;SDS011;10445;50.216;7.912;2024-03-23T02:22:23;6.20;;;2.47;;
20573;SDS011;10445;50.216;7.912;2024-03-23T02:24:52;1.90;;;1.37;;
20573;SDS011;10445;50.216;7.912;2024-03-23T02:27:18;3.93;;;3.03;;
20573;SDS011;10445;50.216;7.912;2024-03-23T02:29:46;3.03;;;2.23;;
20573;SDS011;10445;50.216;7.912;2024-03-23T02:32:12;4.70;;;2.10;;
20573;SDS011;10445;50.216;7.912;2024-03-23T02:34:39;4.30;;;2.87;;
20573;SDS011;10445;50.216;7.912;2024-03-23T02:37:10;2.27;;;1.73;;
20573;SDS011;10445;50.216;7.912;2024-03-23T02:39:38;6.93;;;2.93;;
20573;SDS011;10445;50.216;7.912;2024-03-23T02:42:05;8.73;;;4.30;;
20573;SDS011;10445;50.216;7.912;2024-03-23T02:44:33;6.57;;;3.80;;
20573;SDS011;10445;50.216;7.912;2024-03-23T02:46:59;14.23;;;3.03;;
20573;SDS011;10445;50.216;7.912;2024-03-23T02:49:27;2.97;;;1.90;;
20573;SDS011;10445;50.216;7.912;2024-03-23T02:51:53;1.70;;;1.23;;
20573;SDS011;10445;50.216;7.912;2024-03-23T02:54:21;1.63;;;1.53;;
20573;SDS011;10445;50.216;7.912;2024-03-23T02:56:47;1.00;;;0.80;;
20573;SDS011;10445;50.216;7.912;2024-03-23T02:59:16;0.80;;;0.67;;
20573;SDS011;10445;50.216;7.912;2024-03-23T03:01:42;0.57;;;0.57;;
20573;SDS011;10445;50.216;7.912;2024-03-23T03:04:10;0.40;;;0.40;;
20573;SDS011;10445;50.216;7.912;2024-03-23T03:06:36;0.53;;;0.53;;
20573;SDS011;10445;50.216;7.912;2024-03-23T03:09:04;0.37;;;0.37;;
20573;SDS011;10445;50.216;7.912;2024-03-23T03:11:30;1.87;;;0.67;;
20573;SDS011;10445;50.216;7.912;2024-03-23T03:13:57;0.53;;;0.50;;
20573;SDS011;10445;50.216;7.912;2024-03-23T03:16:27;0.73;;;0.47;;
20573;SDS011;10445;50.216;7.912;2024-03-23T03:18:54;0.20;;;0.20;;
20573;SDS011;10445;50.216;7.912;2024-03-23T03:21:21;0.20;;;0.20;;
20573;SDS011;10445;50.216;7.912;2024-03-23T03:23:48;0.20;;;0.20;;
20573;SDS011;10445;50.216;7.912;2024-03-23T03:26:16;0.57;;;0.53;;
20573;SDS011;10445;50.216;7.912;2024-03-23T03:28:43;0.10;;;0.10;;
20573;SDS011;10445;50.216;7.912;2024-03-23T03:31:14;0.20;;;0.20;;
20573;SDS011;10445;50.216;7.912;2024-03-23T03:33:43;0.40;;;0.40;;
20573;SDS011;10445;50.216;7.912;2024-03-23T03:36:10;0.20;;;0.10;;
20573;SDS011;10445;50.216;7.912;2024-03-23T03:38:37;0.20;;;0.20;;
20573;SDS011;10445;50.216;7.912;2024-03-23T03:41:04;0.30;;;0.30;;
20573;SDS011;10445;50.216;7.912;2024-03-23T03:43:31;0.20;;;0.20;;
20573;SDS011;10445;50.216;7.912;2024-03-23T03:45:58;0.20;;;0.20;;
20573;SDS011;10445;50.216;7.912;2024-03-23T03:48:26;0.20;;;0.20;;
20573;SDS011;10445;50.216;7.912;2024-03-23T03:50:54;0.20;;;0.20;;
20573;SDS011;10445;50.216;7.912;2024-03-23T03:53:22;0.10;;;0.10;;
20573;SDS011;10445;50.216;7.912;2024-03-23T03:55:48;0.10;;;0.10;;
20573;SDS011;10445;50.216;7.912;2024-03-23T03:58:15;0.10;;;0.10;;
20573;SDS011;10445;50.216;7.912;2024-03-23T04:00:42;0.20;;;0.20;;
20573;SDS011;10445;50.216;7.912;2024-03-23T04:03:09;0.10;;;0.10;;
20573;SDS011;10445;50.216;7.912;2024-03-23T04:05:36;0.20;;;0.20;;
20573;SDS011;10445;50.216;7.912;2024-03-23T04:08:06;0.10;;;0.10;;
20573;SDS011;10445;50.216;7.912;2024-03-23T04:10:33;0.20;;;0.20;;
20573;SDS011;10445;50.216;7.912;2024-03-23T04:13:01;0.33;;;0.33;;
20573;SDS011;10445;50.216;7.912;2024-03-23T04:15:30;1.53;;;1.07;;
20573;SDS011;10445;50.216;7.912;2024-03-23T04:17:57;0.20;;;0.20;;
20573;SDS011;10445;50.216;7.912;2024-03-23T04:20:24;0.27;;;0.27;;
20573;SDS011;10445;50.216;7.912;2024-03-23T04:22:51;0.67;;;0.50;;
20573;SDS011;10445;50.216;7.912;2024-03-23T04:25:23;0.97;;;0.73;;
20573;SDS011;10445;50.216;7.912;2024-03-23T04:27:50;0.20;;;0.20;;
20573;SDS011;10445;50.216;7.912;2024-03-23T04:30:17;1.23;;;0.43;;
20573;SDS011;10445;50.216;7.912;2024-03-23T04:32:44;0.30;;;0.30;;
20573;SDS011;10445;50.216;7.912;2024-03-23T04:35:11;0.20;;;0.20;;
20573;SDS011;10445;50.216;7.912;2024-03-23T04:37:38;0.10;;;0.10;;
20573;SDS011;10445;50.216;7.912;2024-03-23T04:40:07;3.50;;;1.27;;
20573;SDS011;10445;50.216;7.912;2024-03-23T04:42:38;0.20;;;0.20;;
20573;SDS011;10445;50.216;7.912;2024-03-23T04:45:05;0.57;;;0.57;;
20573;SDS011;10445;50.216;7.912;2024-03-23T04:47:33;0.20;;;0.20;;
20573;SDS011;10445;50.216;7.912;2024-03-23T04:50:02;0.10;;;0.10;;
20573;SDS011;10445;50.216;7.912;2024-03-23T04:52:30;0.20;;;0.20;;
20573;SDS011;10445;50.216;7.912;2024-03-23T04:54:58;0.47;;;0.47;;
20573;SDS011;10445;50.216;7.912;2024-03-23T04:57:25;0.60;;;0.60;;
20573;SDS011;10445;50.216;7.912;2024-03-23T04:59:53;0.20;;;0.20;;
20573;SDS011;10445;50.216;7.912;2024-03-23T05:02:20;0.20;;;0.20;;
20573;SDS011;10445;50.216;7.912;2024-03-23T05:04:47;0.50;;;0.50;;
20573;SDS011;10445;50.216;7.912;2024-03-23T05:07:14;0.20;;;0.20;;
20573;SDS011;10445;50.216;7.912;2024-03-23T05:09:42;0.30;;;0.30;;
20573;SDS011;10445;50.216;7.912;2024-03-23T05:12:08;0.20;;;0.20;;
20573;SDS011;10445;50.216;7.912;2024-03-23T05:14:35;0.20;;;0.20;;
20573;SDS011;10445;50.216;7.912;2024-03-23T05:17:03;1.73;;;0.70;;
20573;SDS011;10445;50.216;7.912;2024-03-23T05:19:31;0.23;;;0.23;;
20573;SDS011;10445;50.216;7.912;2024-03-23T05:21:57;0.23;;;0.23;;
20573;SDS011;10445;50.216;7.912;2024-03-23T05:24:25;0.20;;;0.20;;
20573;SDS011;10445;50.216;7.912;2024-03-23T05:26:51;0.20;;;0.20;;
20573;SDS011;10445;50.216;7.912;2024-03-23T05:29:19;0.23;;;0.23;;
20573;SDS011;10445;50.216;7.912;2024-03-23T05:31:49;0.63;;;0.63;;
20573;SDS011;10445;50.216;7.912;2024-03-23T05:34:19;0.20;;;0.20;;
20573;SDS011;10445;50.216;7.912;2024-03-23T05:36:45;0.33;;;0.33;;
20573;SDS011;10445;50.216;7.912;2024-03-23T05:39:14;0.20;;;0.20;;
20573;SDS011;10445;50.216;7.912;2024-03-23T05:41:42;0.20;;;0.20;;
20573;SDS011;10445;50.216;7.912;2024-03-23T05:44:09;0.20;;;0.20;;
20573;SDS011;10445;50.216;7.912;2024-03-23T05:46:36;0.20;;;0.20;;
20573;SDS011;10445;50.216;7.912;2024-03-23T05:49:04;0.23;;;0.23;;
20573;SDS011;10445;50.216;7.912;2024-03-23T05:51:32;0.27;;;0.27;;
20573;SDS011;10445;50.216;7.912;2024-03-23T05:53:59;0.20;;;0.20;;
20573;SDS011;10445;50.216;7.912;2024-03-23T05:56:26;0.33;;;0.33;;
20573;SDS011;10445;50.216;7.912;2024-03-23T05:58:53;0.20;;;0.20;;
20573;SDS011;10445;50.216;7.912;2024-03-23T06:01:20;0.40;;;0.40;;
20573;SDS011;10445;50.216;7.912;2024-03-23T06:03:47;0.20;;;0.20;;
20573;SDS011;10445;50.216;7.912;2024-03-23T06:06:14;0.30;;;0.30;;
20573;SDS011;10445;50.216;7.912;2024-03-23T06:08:43;0.20;;;0.20;;
20573;SDS011;10445;50.216;7.912;2024-03-23T06:11:09;1.23;;;0.87;;
20573;SDS011;10445;50.216;7.912;2024-03-23T06:13:37;0.20;;;0.20;;
20573;SDS011;10445;50.216;7.912;2024-03-23T06:16:03;0.20;;;0.20;;
20573;SDS011;10445;50.216;7.912;2024-03-23T06:18:32;0.20;;;0.20;;
20573;SDS011;10445;50.216;7.912;2024-03-23T06:20:58;0.20;;;0.20;;
20573;SDS011;10445;50.216;7.912;2024-03-23T06:23:26;0.30;;;0.30;;
20573;SDS011;10445;50.216;7.912;2024-03-23T06:25:54;0.63;;;0.43;;
20573;SDS011;10445;50.216;7.912;2024-03-23T06:28:21;0.20;;;0.20;;
20573;SDS011;10445;50.216;7.912;2024-03-23T06:30:47;0.20;;;0.20;;
20573;SDS011;10445;50.216;7.912;2024-03-23T06:33:15;0.27;;;0.27;;
20573;SDS011;10445;50.216;7.912;2024-03-23T06:35:41;0.20;;;0.20;;
20573;SDS011;10445;50.216;7.912;2024-03-23T06:38:09;0.40;;;0.40;;
20573;SDS011;10445;50.216;7.912;2024-03-23T06:40:35;0.20;;;0.20;;
20573;SDS011;10445;50.216;7.912;2024-03-23T06:43:04;0.40;;;0.40;;
20573;SDS011;10445;50.216;7.912;2024-03-23T06:45:31;0.20;;;0.20;;
20573;SDS011;10445;50.216;7.912;2024-03-23T06:47:58;0.60;;;0.60;;
20573;SDS011;10445;50.216;7.912;2024-03-23T06:50:24;0.43;;;0.43;;
20573;SDS011;10445;50.216;7.912;2024-03-23T06:52:53;0.37;;;0.37;;
20573;SDS011;10445;50.216;7.912;2024-03-23T06:55:20;0.60;;;0.53;;
20573;SDS011;10445;50.216;7.912;2024-03-23T06:57:47;0.20;;;0.20;;
20573;SDS011;10445;50.216;7.912;2024-03-23T07:00:15;0.63;;;0.53;;
20573;SDS011;10445;50.216;7.912;2024-03-23T07:02:43;0.30;;;0.30;;
20573;SDS011;10445;50.216;7.912;2024-03-23T07:05:09;0.43;;;0.43;;
20573;SDS011;10445;50.216;7.912;2024-03-23T07:07:37;2.27;;;1.33;;
20573;SDS011;10445;50.216;7.912;2024-03-23T07:10:04;0.30;;;0.30;;
20573;SDS011;10445;50.216;7.912;2024-03-23T07:12:33;1.33;;;1.07;;
20573;SDS011;10445;50.216;7.912;2024-03-23T07:14:59;0.20;;;0.20;;
20573;SDS011;10445;50.216;7.912;2024-03-23T07:17:28;0.93;;;0.90;;
20573;SDS011;10445;50.216;7.912;2024-03-23T07:19:54;0.30;;;0.30;;
20573;SDS011;10445;50.216;7.912;2024-03-23T07:22:21;0.30;;;0.30;;
20573;SDS011;10445;50.216;7.912;2024-03-23T07:24:49;0.57;;;0.50;;
20573;SDS011;10445;50.216;7.912;2024-03-23T07:27:17;1.80;;;1.13;;
20573;SDS011;10445;50.216;7.912;2024-03-23T07:29:45;1.30;;;0.90;;
20573;SDS011;10445;50.216;7.912;2024-03-23T07:32:12;0.60;;;0.60;;
20573;SDS011;10445;50.216;7.912;2024-03-23T07:34:40;0.70;;;0.70;;
20573;SDS011;10445;50.216;7.912;2024-03-23T07:37:09;0.33;;;0.33;;
20573;SDS011;10445;50.216;7.912;2024-03-23T07:39:35;0.20;;;0.20;;
20573;SDS011;10445;50.216;7.912;2024-03-23T07:42:03;0.43;;;0.43;;
20573;SDS011;10445;50.216;7.912;2024-03-23T07:44:29;0.73;;;0.73;;
20573;SDS011;10445;50.216;7.912;2024-03-23T07:46:57;0.40;;;0.40;;
20573;SDS011;10445;50.216;7.912;2024-03-23T07:49:24;0.47;;;0.47;;
20573;SDS011;10445;50.216;7.912;2024-03-23T07:51:53;0.37;;;0.37;;
20573;SDS011;10445;50.216;7.912;2024-03-23T07:54:19;0.20;;;0.20;;
20573;SDS011;10445;50.216;7.912;2024-03-23T07:56:47;0.70;;;0.70;;
20573;SDS011;10445;50.216;7.912;2024-03-23T07:59:13;7.33;;;1.33;;
20573;SDS011;10445;50.216;7.912;2024-03-23T08:01:40;3.47;;;0.93;;
20573;SDS011;10445;50.216;7.912;2024-03-23T08:04:07;0.20;;;0.20;;
20573;SDS011;10445;50.216;7.912;2024-03-23T08:06:34;1.37;;;0.90;;
20573;SDS011;10445;50.216;7.912;2024-03-23T08:09:02;0.50;;;0.50;;
20573;SDS011;10445;50.216;7.912;2024-03-23T08:11:30;0.60;;;0.60;;
20573;SDS011;10445;50.216;7.912;2024-03-23T08:13:57;0.93;;;0.93;;
20573;SDS011;10445;50.216;7.912;2024-03-23T08:16:25;0.40;;;0.30;;
20573;SDS011;10445;50.216;7.912;2024-03-23T08:18:51;1.07;;;0.97;;
20573;SDS011;10445;50.216;7.912;2024-03-23T08:21:19;0.20;;;0.20;;
20573;SDS011;10445;50.216;7.912;2024-03-23T08:23:45;0.57;;;0.40;;
20573;SDS011;10445;50.216;7.912;2024-03-23T08:26:16;0.20;;;0.20;;
20573;SDS011;10445;50.216;7.912;2024-03-23T08:28:43;0.30;;;0.30;;
20573;SDS011;10445;50.216;7.912;2024-03-23T08:31:11;0.20;;;0.20;;
20573;SDS011;10445;50.216;7.912;2024-03-23T08:33:38;0.30;;;0.30;;
20573;SDS011;10445;50.216;7.912;2024-03-23T08:36:08;2.87;;;1.30;;
20573;SDS011;10445;50.216;7.912;2024-03-23T08:38:37;0.87;;;0.87;;
20573;SDS011;10445;50.216;7.912;2024-03-23T08:41:05;1.13;;;0.50;;
20573;SDS011;10445;50.216;7.912;2024-03-23T08:43:35;2.10;;;1.07;;
20573;SDS011;10445;50.216;7.912;2024-03-23T08:46:03;0.63;;;0.53;;
20573;SDS011;10445;50.216;7.912;2024-03-23T08:48:30;0.30;;;0.30;;
20573;SDS011;10445;50.216;7.912;2024-03-23T08:50:59;0.20;;;0.20;;
20573;SDS011;10445;50.216;7.912;2024-03-23T08:53:27;1.80;;;0.90;;
20573;SDS011;10445;50.216;7.912;2024-03-23T08:55:55;0.87;;;0.87;;
20573;SDS011;10445;50.216;7.912;2024-03-23T08:58:23;17.57;;;0.87;;
20573;SDS011;10445;50.216;7.912;2024-03-23T09:00:52;0.50;;;0.43;;
20573;SDS011;10445;50.216;7.912;2024-03-23T09:03:22;0.20;;;0.20;;
20573;SDS011;10445;50.216;7.912;2024-03-23T09:05:49;0.80;;;0.57;;
20573;SDS011;10445;50.216;7.912;2024-03-23T09:08:16;0.37;;;0.37;;
20573;SDS011;10445;50.216;7.912;2024-03-23T09:10:43;0.20;;;0.20;;
20573;SDS011;10445;50.216;7.912;2024-03-23T09:13:10;0.57;;;0.57;;
20573;SDS011;10445;50.216;7.912;2024-03-23T09:15:44;0.30;;;0.30;;
20573;SDS011;10445;50.216;7.912;2024-03-23T09:18:13;0.77;;;0.50;;
20573;SDS011;10445;50.216;7.912;2024-03-23T09:20:40;0.50;;;0.50;;
20573;SDS011;10445;50.216;7.912;2024-03-23T09:23:07;0.30;;;0.30;;
20573;SDS011;10445;50.216;7.912;2024-03-23T09:25:36;0.27;;;0.27;;
20573;SDS011;10445;50.216;7.912;2024-03-23T09:28:03;0.23;;;0.23;;
20573;SDS011;10445;50.216;7.912;2024-03-23T09:30:32;0.70;;;0.60;;
20573;SDS011;10445;50.216;7.912;2024-03-23T09:32:59;0.30;;;0.30;;
20573;SDS011;10445;50.216;7.912;2024-03-23T09:35:27;0.77;;;0.63;;
20573;SDS011;10445;50.216;7.912;2024-03-23T09:37:54;0.20;;;0.20;;
20573;SDS011;10445;50.216;7.912;2024-03-23T09:40:22;0.40;;;0.30;;
20573;SDS011;10445;50.216;7.912;2024-03-23T09:42:52;0.30;;;0.30;;
20573;SDS011;10445;50.216;7.912;2024-03-23T09:45:21;1.37;;;0.60;;
20573;SDS011;10445;50.216;7.912;2024-03-23T09:47:52;0.70;;;0.50;;
20573;SDS011;10445;50.216;7.912;2024-03-23T09:50:19;0.57;;;0.47;;
20573;SDS011;10445;50.216;7.912;2024-03-23T09:52:47;0.20;;;0.20;;
20573;SDS011;10445;50.216;7.912;2024-03-23T09:55:17;0.47;;;0.40;;
20573;SDS011;10445;50.216;7.912;2024-03-23T09:57:43;0.30;;;0.30;;
20573;SDS011;10445;50.216;7.912;2024-03-23T10:00:11;1.50;;;0.57;;
20573;SDS011;10445;50.216;7.912;2024-03-23T10:02:38;0.30;;;0.30;;
20573;SDS011;10445;50.216;7.912;2024-03-23T10:05:13;0.20;;;0.20;;
20573;SDS011;10445;50.216;7.912;2024-03-23T10:07:48;0.30;;;0.30;;
20573;SDS011;10445;50.216;7.912;2024-03-23T10:10:16;2.27;;;0.60;;
20573;SDS011;10445;50.216;7.912;2024-03-23T10:12:46;0.50;;;0.50;;
20573;SDS011;10445;50.216;7.912;2024-03-23T10:15:19;1.23;;;1.13;;
20573;SDS011;10445;50.216;7.912;2024-03-23T10:17:47;0.60;;;0.53;;
20573;SDS011;10445;50.216;7.912;2024-03-23T10:20:18;0.20;;;0.20;;
20573;SDS011;10445;50.216;7.912;2024-03-23T10:22:49;0.40;;;0.40;;
20573;SDS011;10445;50.216;7.912;2024-03-23T10:25:17;3.37;;;1.30;;
20573;SDS011;10445;50.216;7.912;2024-03-23T10:27:55;0.20;;;0.20;;
20573;SDS011;10445;50.216;7.912;2024-03-23T10:30:26;0.40;;;0.40;;
20573;SDS011;10445;50.216;7.912;2024-03-23T10:32:55;0.30;;;0.30;;
20573;SDS011;10445;50.216;7.912;2024-03-23T10:35:34;0.40;;;0.40;;
20573;SDS011;10445;50.216;7.912;2024-03-23T10:38:02;0.20;;;0.20;;
20573;SDS011;10445;50.216;7.912;2024-03-23T10:40:31;0.40;;;0.40;;
20573;SDS011;10445;50.216;7.912;2024-03-23T10:43:00;0.30;;;0.30;;
20573;SDS011;10445;50.216;7.912;2024-03-23T10:45:29;1.13;;;0.97;;
20573;SDS011;10445;50.216;7.912;2024-03-23T10:47:56;1.47;;;0.67;;
20573;SDS011;10445;50.216;7.912;2024-03-23T10:50:23;0.97;;;0.70;;
20573;SDS011;10445;50.216;7.912;2024-03-23T10:52:50;0.70;;;0.70;;
20573;SDS011;10445;50.216;7.912;2024-03-23T10:55:22;0.40;;;0.40;;
20573;SDS011;10445;50.216;7.912;2024-03-23T10:57:50;0.73;;;0.73;;
20573;SDS011;10445;50.216;7.912;2024-03-23T11:00:20;0.40;;;0.40;;
20573;SDS011;10445;50.216;7.912;2024-03-23T11:02:48;0.37;;;0.37;;
20573;SDS011;10445;50.216;7.912;2024-03-23T11:05:29;0.83;;;0.83;;
20573;SDS011;10445;50.216;7.912;2024-03-23T11:07:55;0.30;;;0.30;;
20573;SDS011;10445;50.216;7.912;2024-03-23T11:10:28;0.30;;;0.30;;
20573;SDS011;10445;50.216;7.912;2024-03-23T11:12:55;0.30;;;0.30;;
20573;SDS011;10445;50.216;7.912;2024-03-23T11:15:23;1.53;;;0.57;;
20573;SDS011;10445;50.216;7.912;2024-03-23T11:18:02;1.37;;;1.10;;
20573;SDS011;10445;50.216;7.912;2024-03-23T11:20:33;0.20;;;0.20;;
20573;SDS011;10445;50.216;7.912;2024-03-23T11:23:00;0.60;;;0.60;;
20573;SDS011;10445;50.216;7.912;2024-03-23T11:25:30;0.50;;;0.50;;
20573;SDS011;10445;50.216;7.912;2024-03-23T11:27:56;0.20;;;0.20;;
20573;SDS011;10445;50.216;7.912;2024-03-23T11:30:25;0.20;;;0.20;;
20573;SDS011;10445;50.216;7.912;2024-03-23T11:32:54;12.00;;;0.80;;
20573;SDS011;10445;50.216;7.912;2024-03-23T11:35:26;0.83;;;0.37;;
20573;SDS011;10445;50.216;7.912;2024-03-23T11:38:06;0.30;;;0.30;;
20573;SDS011;10445;50.216;7.912;2024-03-23T11:40:36;0.53;;;0.53;;
20573;SDS011;10445;50.216;7.912;2024-03-23T11:43:04;2.27;;;0.80;;
20573;SDS011;10445;50.216;7.912;2024-03-23T11:45:36;0.27;;;0.27;;
20573;SDS011;10445;50.216;7.912;2024-03-23T11:48:07;0.20;;;0.20;;
20573;SDS011;10445;50.216;7.912;2024-03-23T11:50:37;0.57;;;0.57;;
20573;SDS011;10445;50.216;7.912;2024-03-23T11:53:07;2.53;;;0.87;;
20573;SDS011;10445;50.216;7.912;2024-03-23T11:55:41;2.30;;;0.47;;
20573;SDS011;10445;50.216;7.912;2024-03-23T11:58:08;0.80;;;0.67;;
20573;SDS011;10445;50.216;7.912;2024-03-23T12:00:38;0.47;;;0.47;;
20573;SDS011;10445;50.216;7.912;2024-03-23T12:03:05;0.83;;;0.83;;
20573;SDS011;10445;50.216;7.912;2024-03-23T12:05:33;0.83;;;0.53;;
20573;SDS011;10445;50.216;7.912;2024-03-23T12:08:16;0.70;;;0.70;;
20573;SDS011;10445;50.216;7.912;2024-03-23T12:10:47;0.43;;;0.43;;
20573;SDS011;10445;50.216;7.912;2024-03-23T12:13:15;0.70;;;0.70;;
20573;SDS011;10445;50.216;7.912;2024-03-23T12:15:47;0.50;;;0.43;;
20573;SDS011;10445;50.216;7.912;2024-03-23T12:18:15;0.20;;;0.20;;
20573;SDS011;10445;50.216;7.912;2024-03-23T12:20:43;0.20;;;0.20;;
20573;SDS011;10445;50.216;7.912;2024-03-23T12:23:10;0.20;;;0.20;;
20573;SDS011;10445;50.216;7.912;2024-03-23T12:25:41;0.40;;;0.40;;
20573;SDS011;10445;50.216;7.912;2024-03-23T12:28:09;0.20;;;0.20;;
20573;SDS011;10445;50.216;7.912;2024-03-23T12:30:38;0.20;;;0.20;;
20573;SDS011;10445;50.216;7.912;2024-03-23T12:33:05;0.20;;;0.20;;
20573;SDS011;10445;50.216;7.912;2024-03-23T12:35:33;0.20;;;0.20;;
20573;SDS011;10445;50.216;7.912;2024-03-23T12:37:59;0.20;;;0.20;;
20573;SDS011;10445;50.216;7.912;2024-03-23T12:40:27;1.07;;;0.73;;
20573;SDS011;10445;50.216;7.912;2024-03-23T12:42:53;0.20;;;0.20;;
20573;SDS011;10445;50.216;7.912;2024-03-23T12:45:22;0.20;;;0.20;;
20573;SDS011;10445;50.216;7.912;2024-03-23T12:47:49;0.30;;;0.30;;
20573;SDS011;10445;50.216;7.912;2024-03-23T12:50:18;0.20;;;0.20;;
20573;SDS011;10445;50.216;7.912;2024-03-23T12:52:44;0.20;;;0.20;;
20573;SDS011;10445;50.216;7.912;2024-03-23T12:55:12;0.23;;;0.23;;
20573;SDS011;10445;50.216;7.912;2024-03-23T12:57:38;0.20;;;0.20;;
20573;SDS011;10445;50.216;7.912;2024-03-23T13:00:06;0.20;;;0.20;;
20573;SDS011;10445;50.216;7.912;2024-03-23T13:02:37;0.20;;;0.20;;
20573;SDS011;10445;50.216;7.912;2024-03-23T13:05:05;0.20;;;0.20;;
20573;SDS011;10445;50.216;7.912;2024-03-23T13:07:33;0.20;;;0.20;;
20573;SDS011;10445;50.216;7.912;2024-03-23T13:10:03;0.83;;;0.27;;
20573;SDS011;10445;50.216;7.912;2024-03-23T13:12:30;0.20;;;0.20;;
20573;SDS011;10445;50.216;7.912;2024-03-23T13:14:58;0.20;;;0.20;;
20573;SDS011;10445;50.216;7.912;2024-03-23T13:17:25;0.27;;;0.27;;
20573;SDS011;10445;50.216;7.912;2024-03-23T13:19:55;0.30;;;0.30;;
20573;SDS011;10445;50.216;7.912;2024-03-23T13:22:21;0.20;;;0.20;;
20573;SDS011;10445;50.216;7.912;2024-03-23T13:24:49;0.20;;;0.20;;
20573;SDS011;10445;50.216;7.912;2024-03-23T13:27:16;0.20;;;0.20;;
20573;SDS011;10445;50.216;7.912;2024-03-23T13:29:43;0.20;;;0.20;;
20573;SDS011;10445;50.216;7.912;2024-03-23T13:32:12;0.20;;;0.20;;
20573;SDS011;10445;50.216;7.912;2024-03-23T13:34:40;0.20;;;0.20;;
20573;SDS011;10445;50.216;7.912;2024-03-23T13:37:08;0.20;;;0.20;;
20573;SDS011;10445;50.216;7.912;2024-03-23T13:39:35;0.20;;;0.20;;
20573;SDS011;10445;50.216;7.912;2024-03-23T13:42:01;0.10;;;0.10;;
20573;SDS011;10445;50.216;7.912;2024-03-23T13:44:30;0.10;;;0.10;;
20573;SDS011;10445;50.216;7.912;2024-03-23T13:46:56;0.10;;;0.10;;
20573;SDS011;10445;50.216;7.912;2024-03-23T13:49:25;0.20;;;0.20;;
20573;SDS011;10445;50.216;7.912;2024-03-23T13:51:53;0.20;;;0.20;;
20573;SDS011;10445;50.216;7.912;2024-03-23T13:54:22;0.10;;;0.10;;
20573;SDS011;10445;50.216;7.912;2024-03-23T13:56:50;0.20;;;0.20;;
20573;SDS011;10445;50.216;7.912;2024-03-23T13:59:17;0.20;;;0.20;;
20573;SDS011;10445;50.216;7.912;2024-03-23T14:01:44;0.30;;;0.30;;
20573;SDS011;10445;50.216;7.912;2024-03-23T14:04:11;0.83;;;0.77;;
20573;SDS011;10445;50.216;7.912;2024-03-23T14:06:38;0.43;;;0.43;;
20573;SDS011;10445;50.216;7.912;2024-03-23T14:09:07;0.43;;;0.43;;
20573;SDS011;10445;50.216;7.912;2024-03-23T14:11:35;0.20;;;0.20;;
20573;SDS011;10445;50.216;7.912;2024-03-23T14:14:03;1.10;;;0.57;;
20573;SDS011;10445;50.216;7.912;2024-03-23T14:16:30;0.20;;;0.20;;
20573;SDS011;10445;50.216;7.912;2024-03-23T14:18:58;0.30;;;0.30;;
20573;SDS011;10445;50.216;7.912;2024-03-23T14:21:25;0.20;;;0.20;;
20573;SDS011;10445;50.216;7.912;2024-03-23T14:23:52;0.40;;;0.40;;
20573;SDS011;10445;50.216;7.912;2024-03-23T14:26:19;0.53;;;0.53;;
20573;SDS011;10445;50.216;7.912;2024-03-23T14:28:48;0.20;;;0.20;;
20573;SDS011;10445;50.216;7.912;2024-03-23T14:31:16;1.90;;;1.03;;
20573;SDS011;10445;50.216;7.912;2024-03-23T14:33:43;0.10;;;0.10;;
20573;SDS011;10445;50.216;7.912;2024-03-23T14:36:11;0.20;;;0.20;;
20573;SDS011;10445;50.216;7.912;2024-03-23T14:38:39;0.90;;;0.70;;
20573;SDS011;10445;50.216;7.912;2024-03-23T14:41:05;0.20;;;0.20;;
20573;SDS011;10445;50.216;7.912;2024-03-23T14:43:33;0.50;;;0.40;;
20573;SDS011;10445;50.216;7.912;2024-03-23T14:46:08;0.20;;;0.20;;
20573;SDS011;10445;50.216;7.912;2024-03-23T14:48:36;0.20;;;0.20;;
20573;SDS011;10445;50.216;7.912;2024-03-23T14:51:03;0.30;;;0.30;;
20573;SDS011;10445;50.216;7.912;2024-03-23T14:53:31;0.20;;;0.20;;
20573;SDS011;10445;50.216;7.912;2024-03-23T14:55:58;0.20;;;0.20;;
20573;SDS011;10445;50.216;7.912;2024-03-23T14:58:27;0.80;;;0.80;;
20573;SDS011;10445;50.216;7.912;2024-03-23T15:00:59;0.77;;;0.73;;
20573;SDS011;10445;50.216;7.912;2024-03-23T15:03:28;1.50;;;1.30;;
20573;SDS011;10445;50.216;7.912;2024-03-23T15:05:55;1.07;;;0.60;;
20573;SDS011;10445;50.216;7.912;2024-03-23T15:08:23;0.60;;;0.53;;
20573;SDS011;10445;50.216;7.912;2024-03-23T15:10:50;1.13;;;0.73;;
20573;SDS011;10445;50.216;7.912;2024-03-23T15:13:17;0.40;;;0.40;;
20573;SDS011;10445;50.216;7.912;2024-03-23T15:15:44;3.03;;;1.13;;
20573;SDS011;10445;50.216;7.912;2024-03-23T15:18:14;0.40;;;0.40;;
20573;SDS011;10445;50.216;7.912;2024-03-23T15:20:42;0.83;;;0.83;;
20573;SDS011;10445;50.216;7.912;2024-03-23T15:23:19;0.20;;;0.20;;
20573;SDS011;10445;50.216;7.912;2024-03-23T15:25:46;0.20;;;0.20;;
20573;SDS011;10445;50.216;7.912;2024-03-23T15:28:20;0.30;;;0.30;;
20573;SDS011;10445;50.216;7.912;2024-03-23T15:30:46;0.20;;;0.20;;
20573;SDS011;10445;50.216;7.912;2024-03-23T15:33:14;0.53;;;0.53;;
20573;SDS011;10445;50.216;7.912;2024-03-23T15:35:40;0.20;;;0.20;;
20573;SDS011;10445;50.216;7.912;2024-03-23T15:38:09;0.20;;;0.20;;
20573;SDS011;10445;50.216;7.912;2024-03-23T15:40:35;0.20;;;0.20;;
20573;SDS011;10445;50.216;7.912;2024-03-23T15:43:03;0.40;;;0.40;;
20573;SDS011;10445;50.216;7.912;2024-03-23T15:45:30;0.20;;;0.20;;
20573;SDS011;10445;50.216;7.912;2024-03-23T15:47:58;0.20;;;0.20;;